createdAt,value
2022-09-14T00:00:13.768Z,0
2022-09-14T00:01:30.067Z,0
2022-09-14T00:02:46.363Z,0
2022-09-14T00:04:02.647Z,0
2022-09-14T00:05:18.934Z,0
2022-09-14T00:06:35.229Z,0
2022-09-14T00:07:51.522Z,0
2022-09-14T00:09:07.816Z,0
2022-09-14T00:10:23.134Z,0
2022-09-14T00:11:39.418Z,0
2022-09-14T00:12:55.713Z,0
2022-09-14T00:14:11.996Z,0
2022-09-14T00:16:44.582Z,0
2022-09-14T00:18:00.876Z,0
2022-09-14T00:19:17.169Z,0
2022-09-14T00:20:33.461Z,0
2022-09-14T00:21:49.764Z,0
2022-09-14T00:23:06.047Z,0
2022-09-14T00:24:22.342Z,0
2022-09-14T00:25:38.641Z,0
2022-09-14T00:26:53.943Z,0
2022-09-14T00:28:10.244Z,0
2022-09-14T00:29:26.532Z,0
2022-09-14T00:30:42.810Z,0
2022-09-14T00:31:59.118Z,0
2022-09-14T00:33:15.407Z,0
2022-09-14T00:34:31.703Z,0
2022-09-14T00:35:47.998Z,0
2022-09-14T00:37:04.271Z,0
2022-09-14T00:38:20.577Z,0
2022-09-14T00:39:36.872Z,0
2022-09-14T00:40:53.155Z,0
2022-09-14T00:42:09.451Z,0
2022-09-14T00:43:24.758Z,0
2022-09-14T00:44:41.053Z,0
2022-09-14T00:45:57.351Z,0
2022-09-14T00:47:13.639Z,0
2022-09-14T00:48:29.923Z,0
2022-09-14T00:49:46.224Z,0
2022-09-14T00:51:02.519Z,0
2022-09-14T00:52:18.815Z,0
2022-09-14T00:53:35.097Z,0
2022-09-14T00:54:51.400Z,0
2022-09-14T00:56:07.688Z,0
2022-09-14T00:57:23.986Z,0
2022-09-14T00:58:40.269Z,0
2022-09-14T00:59:55.575Z,0
2022-09-14T01:01:11.878Z,0
2022-09-14T01:02:28.171Z,0
2022-09-14T01:03:44.446Z,0
2022-09-14T01:05:00.739Z,0
2022-09-14T01:06:17.043Z,0
2022-09-14T01:07:33.340Z,0
2022-09-14T01:08:49.627Z,0
2022-09-14T01:10:05.925Z,0
2022-09-14T01:11:22.210Z,0
2022-09-14T01:12:38.507Z,0
2022-09-14T01:13:54.805Z,0
2022-09-14T01:15:11.098Z,0
2022-09-14T01:16:26.390Z,0
2022-09-14T01:17:42.691Z,0
2022-09-14T01:18:58.983Z,0
2022-09-14T01:20:15.274Z,0
2022-09-14T01:21:31.560Z,0
2022-09-14T01:22:47.860Z,0
2022-09-14T01:24:04.146Z,0
2022-09-14T01:25:20.454Z,0
2022-09-14T01:26:36.734Z,0
2022-09-14T01:27:53.019Z,0
2022-09-14T01:29:09.312Z,0
2022-09-14T01:30:25.613Z,0
2022-09-14T01:32:58.196Z,0
2022-09-14T01:34:13.517Z,0
2022-09-14T01:35:29.792Z,0
2022-09-14T01:36:46.088Z,0
2022-09-14T01:38:02.382Z,0
2022-09-14T01:40:34.964Z,0
2022-09-14T01:41:51.255Z,0
2022-09-14T01:43:07.564Z,0
2022-09-14T01:44:23.855Z,0
2022-09-14T01:45:40.138Z,0
2022-09-14T01:48:12.715Z,0
2022-09-14T01:49:28.040Z,0
2022-09-14T01:50:43.347Z,0
2022-09-14T01:51:59.640Z,0
2022-09-14T01:53:15.921Z,0
2022-09-14T01:54:32.222Z,0
2022-09-14T01:55:48.524Z,0
2022-09-14T01:57:04.801Z,0
2022-09-14T01:58:21.106Z,0
2022-09-14T01:59:37.403Z,0
2022-09-14T02:00:53.677Z,0
2022-09-14T02:02:09.976Z,0
2022-09-14T02:03:25.298Z,0
2022-09-14T02:04:40.596Z,0
2022-09-14T02:07:12.214Z,0
2022-09-14T02:08:27.516Z,0
2022-09-14T02:09:42.829Z,0
2022-09-14T02:10:59.129Z,0
2022-09-14T02:12:15.408Z,0
2022-09-14T02:13:31.714Z,0
2022-09-14T02:14:48.007Z,0
2022-09-14T02:16:04.000Z,0
2022-09-14T02:17:20.574Z,0
2022-09-14T02:18:36.869Z,0
2022-09-14T02:19:53.179Z,0
2022-09-14T02:21:09.458Z,0
2022-09-14T02:22:25.754Z,0
2022-09-14T02:23:42.045Z,0
2022-09-14T02:24:58.329Z,0
2022-09-14T02:26:13.643Z,0
2022-09-14T02:27:29.932Z,0
2022-09-14T02:28:46.230Z,0
2022-09-14T02:30:02.524Z,0
2022-09-14T02:31:18.822Z,0
2022-09-14T02:32:35.102Z,0
2022-09-14T02:33:51.400Z,0
2022-09-14T02:35:06.721Z,0
2022-09-14T02:36:22.031Z,0
2022-09-14T02:37:38.325Z,0
2022-09-14T02:38:54.617Z,0
2022-09-14T02:40:10.900Z,0
2022-09-14T02:41:27.185Z,0
2022-09-14T02:42:43.492Z,0
2022-09-14T02:43:59.773Z,0
2022-09-14T02:45:16.074Z,0
2022-09-14T02:46:32.366Z,0
2022-09-14T02:47:48.655Z,0
2022-09-14T02:49:04.945Z,0
2022-09-14T02:50:21.235Z,0
2022-09-14T02:51:37.523Z,0
2022-09-14T02:52:52.846Z,0
2022-09-14T02:54:09.134Z,0
2022-09-14T02:55:25.424Z,0
2022-09-14T02:56:41.714Z,0
2022-09-14T02:57:58.008Z,0
2022-09-14T02:59:14.314Z,0
2022-09-14T03:00:30.587Z,0
2022-09-14T03:01:46.885Z,0
2022-09-14T03:03:03.179Z,0
2022-09-14T03:04:19.468Z,0
2022-09-14T03:05:35.770Z,0
2022-09-14T03:06:52.064Z,0
2022-09-14T03:08:08.361Z,0
2022-09-14T03:09:23.668Z,0
2022-09-14T03:10:39.954Z,0
2022-09-14T03:11:56.247Z,0
2022-09-14T03:13:12.529Z,0
2022-09-14T03:14:28.836Z,0
2022-09-14T03:15:45.129Z,0
2022-09-14T03:17:01.414Z,0
2022-09-14T03:18:17.709Z,0
2022-09-14T03:19:34.001Z,0
2022-09-14T03:20:50.294Z,0
2022-09-14T03:22:06.585Z,0
2022-09-14T03:23:22.880Z,0
2022-09-14T03:24:39.160Z,0
2022-09-14T03:25:54.475Z,0
2022-09-14T03:27:10.769Z,0
2022-09-14T03:28:27.070Z,0
2022-09-14T03:29:43.356Z,0
2022-09-14T03:30:59.654Z,0
2022-09-14T03:32:15.944Z,0
2022-09-14T03:33:32.227Z,0
2022-09-14T03:34:48.517Z,0
2022-09-14T03:36:04.816Z,0
2022-09-14T03:37:21.108Z,0
2022-09-14T03:38:37.000Z,0
2022-09-14T03:39:53.684Z,0
2022-09-14T03:41:09.984Z,0
2022-09-14T03:42:25.287Z,0
2022-09-14T03:43:41.588Z,0
2022-09-14T03:44:57.868Z,0
2022-09-14T03:46:14.164Z,0
2022-09-14T03:47:30.464Z,0
2022-09-14T03:48:46.763Z,0
2022-09-14T03:50:03.039Z,0
2022-09-14T03:51:19.345Z,0
2022-09-14T03:52:34.647Z,0
2022-09-14T03:53:50.941Z,0
2022-09-14T03:55:07.238Z,0
2022-09-14T03:56:23.539Z,0
2022-09-14T03:57:39.827Z,0
2022-09-14T03:58:56.122Z,0
2022-09-14T04:00:12.400Z,0
2022-09-14T04:01:28.691Z,0
2022-09-14T04:02:44.987Z,0
2022-09-14T04:04:01.280Z,0
2022-09-14T04:05:17.571Z,0
2022-09-14T04:06:33.879Z,0
2022-09-14T04:07:50.169Z,0
2022-09-14T04:09:05.475Z,0
2022-09-14T04:10:21.761Z,0
2022-09-14T04:11:38.067Z,0
2022-09-14T04:12:54.341Z,0
2022-09-14T04:14:10.652Z,0
2022-09-14T04:15:26.934Z,0
2022-09-14T04:16:43.222Z,0
2022-09-14T04:17:59.516Z,0
2022-09-14T04:19:15.817Z,0
2022-09-14T04:20:32.054Z,1
2022-09-14T04:21:48.335Z,0
2022-09-14T04:23:04.602Z,1
2022-09-14T04:24:20.829Z,1
2022-09-14T04:25:36.083Z,1
2022-09-14T04:26:52.328Z,2
2022-09-14T04:28:08.568Z,1
2022-09-14T04:29:24.795Z,2
2022-09-14T04:30:41.049Z,3
2022-09-14T04:31:57.271Z,8
2022-09-14T04:33:13.518Z,8
2022-09-14T04:34:29.758Z,10
2022-09-14T04:35:45.990Z,9
2022-09-14T04:37:02.236Z,11
2022-09-14T04:38:18.464Z,12
2022-09-14T04:39:34.707Z,13
2022-09-14T04:40:50.942Z,14
2022-09-14T04:42:06.206Z,14
2022-09-14T04:43:22.450Z,14
2022-09-14T04:44:38.688Z,10
2022-09-14T04:45:54.919Z,14
2022-09-14T04:47:11.158Z,16
2022-09-14T04:48:27.389Z,23
2022-09-14T04:49:43.624Z,17
2022-09-14T04:50:59.880Z,22
2022-09-14T04:52:16.102Z,24
2022-09-14T04:53:32.348Z,26
2022-09-14T04:54:48.580Z,24
2022-09-14T04:56:04.829Z,25
2022-09-14T04:57:21.056Z,30
2022-09-14T04:58:36.308Z,22
2022-09-14T04:59:52.555Z,23
2022-09-14T05:01:08.804Z,32
2022-09-14T05:02:25.040Z,30
2022-09-14T05:03:41.264Z,41
2022-09-14T05:04:57.510Z,43
2022-09-14T05:06:13.757Z,42
2022-09-14T05:07:29.981Z,41
2022-09-14T05:08:46.236Z,45
2022-09-14T05:10:02.468Z,45
2022-09-14T05:11:18.706Z,48
2022-09-14T05:12:34.939Z,54
2022-09-14T05:13:51.178Z,58
2022-09-14T05:15:06.426Z,64
2022-09-14T05:16:22.682Z,74
2022-09-14T05:17:38.920Z,76
2022-09-14T05:18:55.148Z,91
2022-09-14T05:20:11.388Z,102
2022-09-14T05:21:27.631Z,105
2022-09-14T05:22:43.868Z,112
2022-09-14T05:24:00.101Z,115
2022-09-14T05:25:16.350Z,126
2022-09-14T05:26:32.575Z,153
2022-09-14T05:27:48.819Z,184
2022-09-14T05:29:05.063Z,203
2022-09-14T05:30:21.298Z,217
2022-09-14T05:31:36.545Z,232
2022-09-14T05:32:52.790Z,230
2022-09-14T05:34:09.038Z,242
2022-09-14T05:35:25.261Z,255
2022-09-14T05:36:41.498Z,260
2022-09-14T05:37:57.733Z,264
2022-09-14T05:39:13.982Z,266
2022-09-14T05:40:30.212Z,280
2022-09-14T05:41:46.449Z,300
2022-09-14T05:43:02.692Z,328
2022-09-14T05:44:18.939Z,356
2022-09-14T05:45:35.182Z,373
2022-09-14T05:46:51.402Z,373
2022-09-14T05:48:06.669Z,362
2022-09-14T05:49:22.915Z,323
2022-09-14T05:50:39.154Z,279
2022-09-14T05:51:55.379Z,266
2022-09-14T05:53:11.624Z,269
2022-09-14T05:54:27.855Z,277
2022-09-14T05:55:44.104Z,285
2022-09-14T05:57:00.338Z,282
2022-09-14T05:58:16.583Z,277
2022-09-14T05:59:32.819Z,287
2022-09-14T06:00:49.052Z,311
2022-09-14T06:02:05.283Z,328
2022-09-14T06:03:21.525Z,338
2022-09-14T06:04:36.781Z,357
2022-09-14T06:05:53.027Z,376
2022-09-14T06:07:09.255Z,383
2022-09-14T06:08:25.492Z,391
2022-09-14T06:09:41.731Z,398
2022-09-14T06:10:57.978Z,411
2022-09-14T06:12:14.210Z,410
2022-09-14T06:14:46.699Z,361
2022-09-14T06:16:02.937Z,353
2022-09-14T06:17:19.164Z,359
2022-09-14T06:18:35.407Z,355
2022-09-14T06:19:51.646Z,328
2022-09-14T06:21:06.888Z,300
2022-09-14T06:22:23.130Z,281
2022-09-14T06:23:39.370Z,279
2022-09-14T06:24:55.620Z,285
2022-09-14T06:26:11.859Z,299
2022-09-14T06:27:28.098Z,304
2022-09-14T06:28:44.319Z,305
2022-09-14T06:30:00.568Z,290
2022-09-14T06:31:16.806Z,281
2022-09-14T06:32:33.040Z,285
2022-09-14T06:33:49.290Z,299
2022-09-14T06:35:05.511Z,327
2022-09-14T06:36:21.768Z,356
2022-09-14T06:37:37.020Z,354
2022-09-14T06:38:53.261Z,341
2022-09-14T06:40:09.485Z,312
2022-09-14T06:41:25.735Z,300
2022-09-14T06:42:41.966Z,282
2022-09-14T06:43:58.206Z,274
2022-09-14T06:45:14.442Z,287
2022-09-14T06:46:30.689Z,306
2022-09-14T06:47:46.931Z,319
2022-09-14T06:49:03.156Z,321
2022-09-14T06:50:19.405Z,331
2022-09-14T06:51:35.632Z,341
2022-09-14T06:52:51.884Z,358
2022-09-14T06:54:07.140Z,367
2022-09-14T06:56:39.603Z,377
2022-09-14T06:57:55.843Z,382
2022-09-14T06:59:12.087Z,393
2022-09-14T07:00:28.320Z,408
2022-09-14T07:01:44.552Z,424
2022-09-14T07:03:00.791Z,437
2022-09-14T07:04:17.035Z,457
2022-09-14T07:05:33.271Z,463
2022-09-14T07:06:49.518Z,473
2022-09-14T07:08:05.756Z,506
2022-09-14T07:09:21.982Z,531
2022-09-14T07:10:37.237Z,551
2022-09-14T07:11:53.491Z,572
2022-09-14T07:13:09.733Z,618
2022-09-14T07:14:25.967Z,656
2022-09-14T07:15:42.191Z,665
2022-09-14T07:16:58.435Z,614
2022-09-14T07:18:14.675Z,531
2022-09-14T07:19:30.905Z,484
2022-09-14T07:20:47.154Z,484
2022-09-14T07:22:03.398Z,479
2022-09-14T07:23:19.622Z,444
2022-09-14T07:24:35.862Z,418
2022-09-14T07:25:52.108Z,406
2022-09-14T07:27:07.362Z,405
2022-09-14T07:28:23.600Z,409
2022-09-14T07:29:39.841Z,434
2022-09-14T07:30:56.071Z,477
2022-09-14T07:32:12.323Z,515
2022-09-14T07:33:28.561Z,542
2022-09-14T07:34:44.791Z,580
2022-09-14T07:36:01.023Z,609
2022-09-14T07:37:17.271Z,626
2022-09-14T07:38:33.501Z,635
2022-09-14T07:39:49.753Z,623
2022-09-14T07:41:05.984Z,632
2022-09-14T07:42:22.222Z,651
2022-09-14T07:43:37.479Z,671
2022-09-14T07:44:53.722Z,682
2022-09-14T07:46:09.952Z,685
2022-09-14T07:47:26.181Z,728
2022-09-14T07:48:42.425Z,758
2022-09-14T07:51:14.911Z,726
2022-09-14T07:52:31.135Z,745
2022-09-14T07:53:47.394Z,756
2022-09-14T07:55:03.615Z,738
2022-09-14T07:56:19.867Z,733
2022-09-14T07:57:36.109Z,751
2022-09-14T07:58:52.342Z,745
2022-09-14T08:00:07.592Z,763
2022-09-14T08:01:23.827Z,811
2022-09-14T08:02:40.063Z,815
2022-09-14T08:05:12.545Z,723
2022-09-14T08:06:28.788Z,706
2022-09-14T08:07:44.035Z,717
2022-09-14T08:09:00.278Z,725
2022-09-14T08:10:16.516Z,719
2022-09-14T08:11:32.751Z,705
2022-09-14T08:12:48.992Z,701
2022-09-14T08:14:05.235Z,710
2022-09-14T08:15:21.465Z,717
2022-09-14T08:16:37.717Z,717
2022-09-14T08:17:53.960Z,723
2022-09-14T08:19:10.180Z,741
2022-09-14T08:20:26.422Z,782
2022-09-14T08:21:42.667Z,805
2022-09-14T08:22:58.904Z,795
2022-09-14T08:24:14.152Z,781
2022-09-14T08:25:30.405Z,800
2022-09-14T08:26:46.640Z,826
2022-09-14T08:28:02.874Z,846
2022-09-14T08:29:19.109Z,847
2022-09-14T08:30:35.347Z,803
2022-09-14T08:31:51.595Z,748
2022-09-14T08:33:07.819Z,728
2022-09-14T08:34:24.063Z,768
2022-09-14T08:35:40.296Z,864
2022-09-14T08:36:56.551Z,993
2022-09-14T08:38:12.778Z,1099
2022-09-14T08:39:29.015Z,1173
2022-09-14T08:40:44.267Z,1223
2022-09-14T08:42:00.518Z,1274
2022-09-14T08:43:16.756Z,1321
2022-09-14T08:44:32.982Z,1337
2022-09-14T08:45:49.232Z,1358
2022-09-14T08:47:05.463Z,1405
2022-09-14T08:48:21.701Z,1436
2022-09-14T08:49:37.937Z,1397
2022-09-14T08:50:54.183Z,1292
2022-09-14T08:52:10.413Z,1174
2022-09-14T08:53:26.658Z,1114
2022-09-14T08:54:42.896Z,1088
2022-09-14T08:55:59.146Z,1065
2022-09-14T08:57:14.387Z,1009
2022-09-14T08:58:30.635Z,945
2022-09-14T08:59:46.873Z,888
2022-09-14T09:01:03.111Z,867
2022-09-14T09:02:19.342Z,879
2022-09-14T09:03:35.585Z,899
2022-09-14T09:04:51.819Z,901
2022-09-14T09:06:08.070Z,912
2022-09-14T09:07:24.295Z,931
2022-09-14T09:08:40.547Z,966
2022-09-14T09:09:56.769Z,1008
2022-09-14T09:11:13.006Z,1046
2022-09-14T09:12:29.250Z,1056
2022-09-14T09:13:44.500Z,1059
2022-09-14T09:15:00.740Z,1083
2022-09-14T09:16:16.991Z,1125
2022-09-14T09:17:33.220Z,1152
2022-09-14T09:18:49.451Z,1183
2022-09-14T09:20:05.707Z,1207
2022-09-14T09:21:21.945Z,1252
2022-09-14T09:22:38.172Z,1311
2022-09-14T09:23:54.413Z,1359
2022-09-14T09:25:10.647Z,1385
2022-09-14T09:26:26.899Z,1385
2022-09-14T09:27:43.130Z,1386
2022-09-14T09:28:59.371Z,1392
2022-09-14T09:30:14.629Z,1495
2022-09-14T09:31:30.866Z,1668
2022-09-14T09:32:47.087Z,1801
2022-09-14T09:34:03.342Z,1825
2022-09-14T09:35:19.564Z,1729
2022-09-14T09:36:35.821Z,1584
2022-09-14T09:37:52.049Z,1476
2022-09-14T09:39:08.291Z,1476
2022-09-14T09:40:24.525Z,1493
2022-09-14T09:41:40.773Z,1475
2022-09-14T09:42:57.003Z,1430
2022-09-14T09:44:13.240Z,1415
2022-09-14T09:45:29.470Z,1462
2022-09-14T09:46:44.740Z,1578
2022-09-14T09:48:00.964Z,1689
2022-09-14T09:49:17.216Z,1777
2022-09-14T09:50:33.457Z,1835
2022-09-14T09:51:49.693Z,1856
2022-09-14T09:53:05.925Z,1857
2022-09-14T09:54:22.170Z,1907
2022-09-14T09:55:38.403Z,2014
2022-09-14T09:56:54.652Z,2064
2022-09-14T09:58:10.874Z,2026
2022-09-14T09:59:27.117Z,1962
2022-09-14T10:00:43.357Z,1950
2022-09-14T10:01:59.587Z,2000
2022-09-14T10:03:15.825Z,2095
2022-09-14T10:04:31.097Z,2389
2022-09-14T10:05:47.335Z,2037
2022-09-14T10:07:03.565Z,2406
2022-09-14T10:08:19.797Z,2341
2022-09-14T10:09:36.051Z,2191
2022-09-14T10:10:52.275Z,2026
2022-09-14T10:12:08.521Z,1901
2022-09-14T10:13:24.753Z,1814
2022-09-14T10:14:40.997Z,1724
2022-09-14T10:15:57.235Z,1611
2022-09-14T10:17:13.482Z,1556
2022-09-14T10:18:29.719Z,1536
2022-09-14T10:19:45.952Z,1519
2022-09-14T10:21:01.213Z,1486
2022-09-14T10:22:17.436Z,1444
2022-09-14T10:23:33.673Z,1441
2022-09-14T10:24:49.921Z,1517
2022-09-14T10:26:06.162Z,1621
2022-09-14T10:27:22.392Z,1681
2022-09-14T10:28:38.631Z,1660
2022-09-14T10:29:54.866Z,1594
2022-09-14T10:31:11.111Z,1539
2022-09-14T10:32:27.344Z,1510
2022-09-14T10:33:43.580Z,1516
2022-09-14T10:34:59.831Z,1555
2022-09-14T10:36:16.067Z,1576
2022-09-14T10:37:31.315Z,1572
2022-09-14T10:38:47.558Z,1601
2022-09-14T10:40:03.789Z,1647
2022-09-14T10:41:20.040Z,1650
2022-09-14T10:42:36.282Z,1587
2022-09-14T10:43:52.515Z,1503
2022-09-14T10:45:08.755Z,1416
2022-09-14T10:46:24.987Z,1353
2022-09-14T10:47:41.229Z,1331
2022-09-14T10:48:57.456Z,1338
2022-09-14T10:50:13.695Z,1387
2022-09-14T10:51:29.945Z,1392
2022-09-14T10:52:46.177Z,1295
2022-09-14T10:54:01.431Z,1166
2022-09-14T10:55:17.683Z,1081
2022-09-14T10:56:33.911Z,1064
2022-09-14T10:57:50.142Z,1121
2022-09-14T10:59:06.388Z,1249
2022-09-14T11:00:22.621Z,1352
2022-09-14T11:01:38.873Z,1415
2022-09-14T11:02:55.099Z,1407
2022-09-14T11:04:11.351Z,1339
2022-09-14T11:05:27.592Z,1242
2022-09-14T11:06:43.822Z,1201
2022-09-14T11:08:00.058Z,1159
2022-09-14T11:09:16.289Z,1131
2022-09-14T11:10:31.547Z,1123
2022-09-14T11:11:47.783Z,1099
2022-09-14T11:13:04.024Z,1040
2022-09-14T11:14:20.261Z,990
2022-09-14T11:15:36.516Z,945
2022-09-14T11:16:52.734Z,935
2022-09-14T11:18:08.974Z,948
2022-09-14T11:19:25.211Z,978
2022-09-14T11:20:41.461Z,1026
2022-09-14T11:21:57.698Z,1114
2022-09-14T11:23:13.930Z,1194
2022-09-14T11:24:30.171Z,1251
2022-09-14T11:25:46.422Z,1288
2022-09-14T11:27:01.673Z,1303
2022-09-14T11:28:17.916Z,1306
2022-09-14T11:29:34.135Z,1329
2022-09-14T11:30:50.384Z,1348
2022-09-14T11:32:06.625Z,1307
2022-09-14T11:33:22.859Z,1236
2022-09-14T11:34:39.104Z,1169
2022-09-14T11:35:55.332Z,1137
2022-09-14T11:37:11.568Z,1138
2022-09-14T11:38:27.805Z,1175
2022-09-14T11:39:44.044Z,1243
2022-09-14T11:41:00.292Z,1279
2022-09-14T11:42:16.539Z,1301
2022-09-14T11:43:31.787Z,1283
2022-09-14T11:44:48.025Z,1286
2022-09-14T11:46:04.261Z,1307
2022-09-14T11:47:20.501Z,1269
2022-09-14T11:48:36.731Z,1254
2022-09-14T11:49:52.971Z,1268
2022-09-14T11:51:09.213Z,1326
2022-09-14T11:52:25.459Z,1389
2022-09-14T11:53:41.691Z,1455
2022-09-14T11:54:57.932Z,1509
2022-09-14T11:56:14.175Z,1542
2022-09-14T11:57:30.417Z,1524
2022-09-14T11:58:46.655Z,1444
2022-09-14T12:00:01.911Z,1369
2022-09-14T12:01:18.137Z,1340
2022-09-14T12:02:34.369Z,1358
2022-09-14T12:03:50.614Z,1391
2022-09-14T12:05:06.856Z,1472
2022-09-14T12:06:23.103Z,1582
2022-09-14T12:07:39.327Z,1701
2022-09-14T12:08:55.562Z,1835
2022-09-14T12:10:11.810Z,1887
2022-09-14T12:11:28.043Z,1837
2022-09-14T12:12:44.277Z,1760
2022-09-14T12:14:00.515Z,1674
2022-09-14T12:15:16.762Z,1584
2022-09-14T12:16:32.019Z,1578
2022-09-14T12:17:48.263Z,1665
2022-09-14T12:19:04.485Z,1759
2022-09-14T12:20:20.733Z,1845
2022-09-14T12:21:36.967Z,1981
2022-09-14T12:22:52.230Z,2118
2022-09-14T12:24:08.470Z,2281
2022-09-14T12:25:24.707Z,2396
2022-09-14T12:26:40.947Z,2604
2022-09-14T12:27:57.192Z,3179
2022-09-14T12:29:13.422Z,3099
2022-09-14T12:30:29.652Z,2717
2022-09-14T12:31:45.900Z,2271
2022-09-14T12:34:18.383Z,2345
2022-09-14T12:35:34.609Z,2928
2022-09-14T12:36:50.854Z,2929
2022-09-14T12:38:07.097Z,2630
2022-09-14T12:39:22.341Z,2309
2022-09-14T12:40:38.584Z,2005
2022-09-14T12:41:54.833Z,1683
2022-09-14T12:43:11.053Z,1460
2022-09-14T12:44:27.301Z,1432
2022-09-14T12:45:43.533Z,1608
2022-09-14T12:46:59.774Z,1861
2022-09-14T12:48:16.012Z,2138
2022-09-14T12:49:32.255Z,2450
2022-09-14T12:50:48.490Z,2628
2022-09-14T12:52:04.736Z,2708
2022-09-14T12:53:20.981Z,2846
2022-09-14T12:54:37.199Z,2965
2022-09-14T12:55:52.470Z,2969
2022-09-14T12:57:08.693Z,2741
2022-09-14T12:58:24.944Z,2767
2022-09-14T12:59:41.186Z,2770
2022-09-14T13:00:57.427Z,2633
2022-09-14T13:02:13.645Z,2400
2022-09-14T13:03:29.894Z,2073
2022-09-14T13:04:46.130Z,1825
2022-09-14T13:06:02.363Z,1846
2022-09-14T13:07:18.614Z,1867
2022-09-14T13:08:34.846Z,1880
2022-09-14T13:09:51.089Z,1791
2022-09-14T13:11:07.326Z,1728
2022-09-14T13:12:22.572Z,1742
2022-09-14T13:13:38.808Z,1704
2022-09-14T13:14:55.061Z,1700
2022-09-14T13:16:11.303Z,1573
2022-09-14T13:17:27.536Z,1469
2022-09-14T13:18:43.763Z,1497
2022-09-14T13:20:00.015Z,1580
2022-09-14T13:21:16.255Z,1724
2022-09-14T13:22:32.480Z,1831
2022-09-14T13:23:48.727Z,1775
2022-09-14T13:25:04.960Z,1612
2022-09-14T13:26:21.199Z,1502
2022-09-14T13:27:37.443Z,1421
2022-09-14T13:28:52.689Z,1367
2022-09-14T13:30:08.938Z,1352
2022-09-14T13:31:25.167Z,1313
2022-09-14T13:32:41.404Z,1273
2022-09-14T13:33:57.649Z,1243
2022-09-14T13:35:13.896Z,1220
2022-09-14T13:36:30.118Z,1182
2022-09-14T13:37:46.358Z,1136
2022-09-14T13:39:02.600Z,1095
2022-09-14T13:40:18.845Z,1075
2022-09-14T13:41:35.077Z,1062
2022-09-14T13:42:51.320Z,1042
2022-09-14T13:44:07.555Z,1021
2022-09-14T13:45:22.805Z,987
2022-09-14T13:46:39.040Z,939
2022-09-14T13:47:55.283Z,888
2022-09-14T13:49:11.533Z,851
2022-09-14T13:50:27.761Z,805
2022-09-14T13:51:43.995Z,755
2022-09-14T13:53:00.238Z,714
2022-09-14T13:54:16.480Z,694
2022-09-14T13:55:32.721Z,679
2022-09-14T13:56:48.961Z,689
2022-09-14T13:58:05.193Z,715
2022-09-14T13:59:21.426Z,758
2022-09-14T14:00:37.664Z,809
2022-09-14T14:01:52.919Z,821
2022-09-14T14:03:09.162Z,822
2022-09-14T14:04:25.395Z,810
2022-09-14T14:05:41.638Z,784
2022-09-14T14:06:57.888Z,796
2022-09-14T14:08:14.109Z,792
2022-09-14T14:09:30.364Z,748
2022-09-14T14:10:46.585Z,707
2022-09-14T14:12:02.838Z,719
2022-09-14T14:13:19.065Z,763
2022-09-14T14:14:35.320Z,759
2022-09-14T14:15:51.551Z,725
2022-09-14T14:17:07.780Z,681
2022-09-14T14:18:23.046Z,650
2022-09-14T14:19:39.287Z,638
2022-09-14T14:20:55.510Z,659
2022-09-14T14:22:11.756Z,673
2022-09-14T14:23:27.991Z,708
2022-09-14T14:24:44.228Z,736
2022-09-14T14:26:00.477Z,743
2022-09-14T14:27:16.714Z,731
2022-09-14T14:28:32.951Z,689
2022-09-14T14:29:49.179Z,664
2022-09-14T14:31:05.432Z,658
2022-09-14T14:32:21.654Z,656
2022-09-14T14:33:37.910Z,642
2022-09-14T14:34:53.155Z,630
2022-09-14T14:36:09.402Z,621
2022-09-14T14:37:25.625Z,616
2022-09-14T14:38:41.877Z,611
2022-09-14T14:39:58.099Z,615
2022-09-14T14:41:14.347Z,628
2022-09-14T14:42:30.596Z,661
2022-09-14T14:43:46.835Z,689
2022-09-14T14:45:03.067Z,707
2022-09-14T14:46:19.296Z,716
2022-09-14T14:47:35.542Z,711
2022-09-14T14:48:51.786Z,685
2022-09-14T14:50:08.023Z,645
2022-09-14T14:51:23.280Z,606
2022-09-14T14:52:39.501Z,574
2022-09-14T14:53:55.743Z,561
2022-09-14T14:55:11.985Z,571
2022-09-14T14:56:28.229Z,594
2022-09-14T14:57:44.467Z,620
2022-09-14T14:59:00.694Z,624
2022-09-14T15:00:16.938Z,518
2022-09-14T15:01:33.175Z,423
2022-09-14T15:02:49.428Z,378
2022-09-14T15:04:05.665Z,372
2022-09-14T15:05:21.899Z,389
2022-09-14T15:06:38.124Z,434
2022-09-14T15:07:53.397Z,480
2022-09-14T15:09:09.619Z,507
2022-09-14T15:10:25.859Z,498
2022-09-14T15:11:42.093Z,474
2022-09-14T15:12:58.344Z,452
2022-09-14T15:14:14.576Z,439
2022-09-14T15:15:30.823Z,448
2022-09-14T15:16:47.024Z,481
2022-09-14T15:18:03.264Z,510
2022-09-14T15:19:19.498Z,512
2022-09-14T15:20:35.739Z,458
2022-09-14T15:21:51.991Z,384
2022-09-14T15:23:08.219Z,329
2022-09-14T15:24:23.476Z,315
2022-09-14T15:26:55.942Z,338
2022-09-14T15:28:12.187Z,356
2022-09-14T15:29:28.427Z,368
2022-09-14T15:30:44.666Z,369
2022-09-14T15:32:00.902Z,360
2022-09-14T15:33:17.144Z,360
2022-09-14T15:34:33.374Z,356
2022-09-14T15:35:49.615Z,352
2022-09-14T15:37:05.859Z,373
2022-09-14T15:38:22.103Z,398
2022-09-14T15:39:38.328Z,391
2022-09-14T15:40:53.584Z,327
2022-09-14T15:42:09.823Z,284
2022-09-14T15:43:26.056Z,257
2022-09-14T15:44:42.298Z,241
2022-09-14T15:45:58.549Z,232
2022-09-14T15:47:14.785Z,224
2022-09-14T15:48:31.017Z,216
2022-09-14T15:49:47.248Z,229
2022-09-14T15:51:03.507Z,250
2022-09-14T15:52:19.728Z,235
2022-09-14T15:53:35.975Z,252
2022-09-14T15:54:52.205Z,251
2022-09-14T15:56:08.455Z,242
2022-09-14T15:57:23.712Z,198
2022-09-14T15:58:39.949Z,188
2022-09-14T15:59:56.180Z,177
2022-09-14T16:01:12.420Z,163
2022-09-14T16:02:28.665Z,141
2022-09-14T16:03:44.893Z,134
2022-09-14T16:05:01.143Z,133
2022-09-14T16:06:17.371Z,125
2022-09-14T16:07:33.622Z,135
2022-09-14T16:08:49.848Z,135
2022-09-14T16:10:06.089Z,150
2022-09-14T16:11:22.332Z,153
2022-09-14T16:12:38.574Z,161
2022-09-14T16:13:53.824Z,174
2022-09-14T16:15:10.065Z,176
2022-09-14T16:16:26.306Z,173
2022-09-14T16:17:42.529Z,165
2022-09-14T16:18:58.774Z,164
2022-09-14T16:20:15.019Z,160
2022-09-14T16:21:31.253Z,166
2022-09-14T16:22:47.486Z,181
2022-09-14T16:24:03.730Z,189
2022-09-14T16:25:19.972Z,194
2022-09-14T16:26:36.207Z,184
2022-09-14T16:29:08.674Z,187
2022-09-14T16:30:23.943Z,180
2022-09-14T16:31:40.176Z,156
2022-09-14T16:32:56.410Z,144
2022-09-14T16:34:12.646Z,139
2022-09-14T16:35:28.897Z,146
2022-09-14T16:36:45.124Z,136
2022-09-14T16:38:00.391Z,135
2022-09-14T16:39:16.632Z,130
2022-09-14T16:40:32.863Z,120
2022-09-14T16:41:49.106Z,108
2022-09-14T16:43:05.336Z,92
2022-09-14T16:44:21.591Z,74
2022-09-14T16:45:37.826Z,70
2022-09-14T16:46:54.056Z,74
2022-09-14T16:48:10.297Z,63
2022-09-14T16:49:26.542Z,62
2022-09-14T16:50:42.773Z,56
2022-09-14T16:51:59.018Z,56
2022-09-14T16:53:15.250Z,52
2022-09-14T16:54:30.510Z,54
2022-09-14T16:55:46.756Z,52
2022-09-14T16:57:02.976Z,42
2022-09-14T16:58:19.232Z,37
2022-09-14T16:59:35.462Z,33
2022-09-14T17:00:51.709Z,31
2022-09-14T17:02:07.945Z,32
2022-09-14T17:03:24.187Z,34
2022-09-14T17:04:40.419Z,29
2022-09-14T17:05:56.659Z,25
2022-09-14T17:07:12.901Z,22
2022-09-14T17:08:29.124Z,19
2022-09-14T17:09:45.369Z,18
2022-09-14T17:11:00.623Z,17
2022-09-14T17:12:16.862Z,17
2022-09-14T17:13:33.102Z,17
2022-09-14T17:14:49.336Z,11
2022-09-14T17:16:05.576Z,14
2022-09-14T17:17:21.815Z,12
2022-09-14T17:18:38.047Z,10
2022-09-14T17:19:54.301Z,8
2022-09-14T17:21:10.521Z,8
2022-09-14T17:22:26.763Z,8
2022-09-14T17:23:43.001Z,6
2022-09-14T17:24:59.238Z,6
2022-09-14T17:26:15.485Z,5
2022-09-14T17:27:30.731Z,5
2022-09-14T17:28:46.984Z,5
2022-09-14T17:30:03.222Z,3
2022-09-14T17:31:19.454Z,4
2022-09-14T17:32:35.690Z,3
2022-09-14T17:33:51.923Z,2
2022-09-14T17:35:08.180Z,2
2022-09-14T17:36:24.413Z,2
2022-09-14T17:37:40.651Z,1
2022-09-14T17:38:56.895Z,2
2022-09-14T17:40:13.124Z,1
2022-09-14T17:41:29.367Z,1
2022-09-14T17:42:45.659Z,0
2022-09-14T17:44:00.957Z,0
2022-09-14T17:45:17.261Z,0
2022-09-14T17:46:33.561Z,0
2022-09-14T17:47:49.843Z,0
2022-09-14T17:49:06.144Z,0
2022-09-14T17:50:22.426Z,0
2022-09-14T17:51:38.723Z,0
2022-09-14T17:52:55.023Z,0
2022-09-14T17:54:11.305Z,0
2022-09-14T17:55:27.595Z,0
2022-09-14T17:56:43.895Z,0
2022-09-14T17:58:00.193Z,0